Latest Weather Observations for Canterbury

IDN60901

Issued at 3:05 pm EST Friday 25 April 2014 (issued every 10 minutes, with the page automatically refreshed every 10 minutes)

About weather observations | Map of Sydney area stations | Latest observations for Sydney area | Other Formats
Station Details ID: 066194 Name: CANTERBURY RACECOURSE AWS Lat: -33.91 Lon: 151.11 Height: 3.0 m
Data from the previous 72 hours. | See also: Recent months at Canterbury
Date/Time
EST
Tmp

°C
App
Tmp
°C
Dew
Point
°C
Rel
Hum
%
Delta-T

°C
Wind Press
QNH
hPa
Press
MSL
hPa
Rain
since
9 am
mm
Dir
 
Spd
km/h
Gust
km/h
Spd
kts
Gust
kts
25/03:00pm 21.0 19.2 13.4 62 4.4 E 15 22 8 12 - - 0.8
25/02:30pm 20.2 19.4 15.2 73 2.9 E 13 20 7 11 - - 0.8
25/02:00pm 19.8 19.3 15.9 78 2.3 ESE 13 19 7 10 - - 0.8
25/01:49pm 18.9 17.9 15.6 81 1.9 E 15 22 8 12 - - 0.8
25/01:30pm 18.8 18.4 16.2 85 1.5 ESE 13 17 7 9 - - 0.8
25/01:21pm 19.1 19.8 16.1 83 1.8 ENE 7 9 4 5 - - 0.6
25/01:11pm 19.0 19.9 16.0 83 1.8 ENE 6 9 3 5 - - 0.6
25/01:00pm 19.0 19.6 15.9 82 1.8 NE 7 13 4 7 - - 0.4
25/12:30pm 18.8 19.0 15.7 82 1.8 NNE 9 13 5 7 - - 0.4
25/12:00pm 18.7 18.8 15.4 81 1.9 NNE 9 13 5 7 - - 0.4
25/11:41am 19.0 18.3 15.3 79 2.2 SSE 13 17 7 9 - - 0.4
25/11:30am 18.8 18.1 15.3 80 2.1 ESE 13 19 7 10 - - 0.4
25/11:20am 19.0 19.3 15.9 82 1.8 E 9 13 5 7 - - 0.2
25/11:00am 19.2 20.0 15.9 81 2.0 S 6 9 3 5 - - 0.2
25/10:30am 18.9 19.3 15.2 79 2.2 S 7 11 4 6 - - 0.2
25/10:00am 18.3 18.4 15.6 84 1.6 S 9 15 5 8 - - 0.2
25/09:30am 17.4 16.1 14.9 85 1.4 ESE 15 24 8 13 - - 0.2
25/09:26am 17.4 16.6 15.0 86 1.4 ESE 13 24 7 13 - - 0.2
25/09:00am 17.5 16.8 15.3 87 1.3 ESE 13 17 7 9 - - 0.8
25/08:30am 17.9 17.0 14.8 82 1.8 E 13 17 7 9 - - 0.2
25/08:11am 18.7 16.4 14.2 75 2.6 SE 19 24 10 13 - - 0.0
25/08:00am 19.4 16.6 13.3 68 3.5 SSE 20 28 11 15 - - 0.0
25/07:30am 19.2 18.7 13.8 71 3.1 SSW 9 15 5 8 - - 0.0
25/07:00am 18.9 18.2 13.1 69 3.3 SSW 9 17 5 9 - - 0.0
25/06:30am 19.7 17.5 13.2 66 3.7 S 17 24 9 13 - - 0.0
25/06:00am 19.7 18.2 13.2 66 3.7 SSE 13 19 7 10 - - 0.0
25/05:30am 19.8 17.7 13.5 67 3.6 S 17 24 9 13 - - 0.0
25/05:00am 19.8 18.1 13.7 68 3.5 S 15 19 8 10 - - 0.0
25/04:30am 19.8 17.3 13.5 67 3.6 S 19 28 10 15 - - 0.0
25/04:00am 19.7 17.5 13.4 67 3.6 S 17 24 9 13 - - 0.0
25/03:30am 19.9 17.0 14.0 69 3.4 S 22 28 12 15 - - 0.0
25/03:00am 19.8 17.8 14.0 69 3.3 S 17 28 9 15 - - 0.0
25/02:30am 19.8 17.8 14.0 69 3.3 S 17 22 9 12 - - 0.0
25/02:00am 20.2 17.9 14.6 70 3.3 S 20 30 11 16 - - 0.0
25/01:30am 20.2 18.1 14.6 70 3.3 S 19 24 10 13 - - 0.0
25/01:00am 20.4 18.7 14.7 70 3.3 S 17 28 9 15 - - 0.0
25/12:30am 20.4 18.3 15.2 72 3.1 S 20 32 11 17 - - 0.0
25/12:00am 20.4 18.4 15.4 73 3.0 SSE 20 30 11 16 - - 0.0
 
Date/Time
EST
Tmp

°C
App
Tmp
°C
Dew
Point
°C
Rel
Hum
%
Delta-T

°C
Wind Press
QNH
hPa
Press
MSL
hPa
Rain
since
9 am
mm
Dir
 
Spd
km/h
Gust
km/h
Spd
kts
Gust
kts
24/11:30pm 20.6 18.2 15.4 72 3.1 S 22 30 12 16 - - 0.0
24/11:00pm 20.5 18.7 15.9 75 2.7 S 20 32 11 17 - - 0.0
24/10:30pm 20.7 18.5 15.9 74 2.9 S 22 33 12 18 - - 0.0
24/10:00pm 20.6 19.6 14.7 69 3.5 S 13 19 7 10 - - 0.0
24/09:30pm 19.9 18.2 12.4 62 4.2 S 13 22 7 12 - - 0.0
24/09:00pm 17.1 17.1 12.4 74 2.6 S 4 7 2 4 - - 0.0
24/08:30pm 15.7 16.5 12.5 81 1.8 SW 0 0 0 0 - - 0.0
24/08:00pm 16.5 17.4 12.8 79 2.1 CALM 0 0 0 0 - - 0.0
24/07:30pm 16.6 16.7 11.5 72 2.8 SW 2 6 1 3 - - 0.0
24/07:00pm 17.6 18.3 12.3 71 2.9 CALM 0 0 0 0 - - 0.0
24/06:30pm 18.5 19.2 12.3 67 3.4 SSW 0 0 0 0 - - 0.0
24/06:00pm 20.5 21.2 12.2 59 4.6 CALM 0 0 0 0 - - 0.0
24/05:30pm 23.0 22.3 12.0 50 6.2 S 7 9 4 5 - - 0.0
24/05:00pm 26.8 24.4 6.8 28 10.5 WNW 9 17 5 9 - - 0.0
24/04:30pm 28.2 24.5 6.3 25 11.5 NNW 15 22 8 12 - - 0.0
24/04:00pm 28.7 25.1 6.7 25 11.7 NNW 15 26 8 14 - - 0.0
24/03:30pm 28.7 24.6 6.1 24 11.9 NNW 17 28 9 15 - - 0.0
24/03:00pm 28.1 25.1 7.9 28 10.9 N 13 24 7 13 - - 0.0
24/02:30pm 28.2 25.5 7.4 27 11.2 NNW 11 19 6 10 - - 0.0
24/02:00pm 28.2 25.5 9.0 30 10.6 NNW 13 19 7 10 - - 0.0
24/01:30pm 27.4 24.8 7.8 29 10.5 NNW 11 20 6 11 - - 0.0
24/01:00pm 27.3 24.8 8.2 30 10.3 NNW 11 20 6 11 - - 0.0
24/12:30pm 26.7 23.6 7.2 29 10.3 NW 13 19 7 10 - - 0.0
24/12:00pm 26.4 23.9 8.4 32 9.7 NNW 11 15 6 8 - - 0.0
24/11:30am 25.4 22.9 8.4 34 9.1 N 11 19 6 10 - - 0.0
24/11:00am 23.9 21.3 7.9 36 8.4 NNW 11 17 6 9 - - 0.0
24/10:30am 23.1 20.7 8.8 40 7.6 NNW 11 15 6 8 - - 0.0
24/10:00am 21.6 19.6 8.8 44 6.8 NNW 9 15 5 8 - - 0.0
24/09:30am 20.5 18.8 9.7 50 5.8 NNW 9 15 5 8 - - 0.0
24/09:00am 18.8 16.7 9.8 56 4.8 NNW 11 15 6 8 - - 0.0
24/08:30am 17.2 15.5 9.9 62 3.8 NNW 9 13 5 7 - - 0.0
24/08:00am 16.4 14.4 10.0 66 3.4 NNW 11 17 6 9 - - 0.0
24/07:30am 14.6 13.8 11.0 79 1.9 N 6 9 3 5 - - 0.0
24/07:00am 11.8 10.7 10.0 89 0.9 N 6 9 3 5 - - 0.0
24/06:30am 10.1 9.1 8.9 92 0.6 NNW 4 7 2 4 - - 0.0
24/06:00am 10.4 10.2 9.0 91 0.7 CALM 0 0 0 0 - - 0.0
24/05:30am 10.8 10.8 9.7 93 0.6 CALM 0 0 0 0 - - 0.0
24/05:00am 11.2 11.3 10.1 93 0.6 CALM 0 0 0 0 - - 0.0
24/04:30am 11.2 10.1 9.8 91 0.7 N 6 7 3 4 - - 0.0
24/04:00am 11.0 11.1 10.1 94 0.5 CALM 0 0 0 0 - - 0.0
24/03:30am 10.8 9.6 9.6 92 0.6 NNE 6 9 3 5 - - 0.0
24/03:00am 11.4 11.5 10.1 92 0.7 CALM 0 0 0 0 - - 0.0
24/02:30am 10.9 10.8 9.3 90 0.8 CALM 0 0 0 0 - - 0.0
24/02:00am 12.1 12.5 11.2 94 0.5 CALM 0 0 0 0 - - 0.0
24/01:30am 12.1 12.5 11.2 94 0.5 CALM 0 0 0 0 - - 0.0
24/01:00am 11.7 11.9 10.4 92 0.7 CALM 0 0 0 0 - - 0.0
24/12:30am 12.3 12.7 11.4 94 0.5 CALM 0 0 0 0 - - 0.0
24/12:00am 12.4 11.7 11.3 93 0.6 NNE 6 7 3 4 - - 0.0
 
Date/Time
EST
Tmp

°C
App
Tmp
°C
Dew
Point
°C
Rel
Hum
%
Delta-T

°C
Wind Press
QNH
hPa
Press
MSL
hPa
Rain
since
9 am
mm
Dir
 
Spd
km/h
Gust
km/h
Spd
kts
Gust
kts
23/11:30pm 12.3 12.7 11.2 93 0.6 CALM 0 0 0 0 - - 0.0
23/11:00pm 12.4 12.8 11.1 92 0.7 CALM 0 0 0 0 - - 0.0
23/10:30pm 12.6 13.0 11.3 92 0.7 CALM 0 0 0 0 - - 0.0
23/10:00pm 13.1 13.6 11.5 90 0.8 CALM 0 0 0 0 - - 0.0
23/09:30pm 13.2 13.7 11.6 90 0.9 CALM 0 0 0 0 - - 0.0
23/09:00pm 13.5 14.0 11.7 89 1.0 CALM 0 0 0 0 - - 0.0
23/08:30pm 13.7 14.1 11.4 86 1.2 CALM 0 0 0 0 - - 0.0
23/08:00pm 14.7 15.4 12.2 85 1.4 CALM 0 0 0 0 - - 0.0
23/07:30pm 14.9 15.3 11.3 79 1.9 CALM 0 0 0 0 - - 0.0
23/07:00pm 15.9 16.3 11.1 73 2.6 CALM 0 0 0 0 - - 0.0
23/06:30pm 17.0 17.2 10.6 66 3.4 CALM 0 0 0 0 - - 0.0
23/06:00pm 19.1 18.5 10.4 57 4.7 ENE 4 7 2 4 - - 0.0
23/05:30pm 20.3 19.2 9.8 51 5.6 ENE 6 9 3 5 - - 0.0
23/05:00pm 21.5 19.4 9.7 47 6.3 ESE 11 15 6 8 - - 0.0
23/04:30pm 22.6 20.1 9.7 44 7.0 SE 13 17 7 9 - - 0.0
23/04:00pm 23.6 21.5 9.9 42 7.5 ESE 11 13 6 7 - - 0.0
23/03:30pm 23.5 21.1 10.2 43 7.3 SSE 13 17 7 9 - - 0.0
23/03:00pm 23.8 21.2 9.4 40 7.8 SSE 13 17 7 9 - - 0.0
23/02:30pm 24.4 22.9 8.4 36 8.5 SE 6 13 3 7 - - 0.0
23/02:11pm 25.5 24.6 9.3 36 8.8 E 4 9 2 5 - - 0.0
23/02:00pm 24.9 23.6 9.2 37 8.5 ESE 6 7 3 4 - - 0.0
23/01:30pm 24.0 22.5 9.2 39 8.0 SE 7 9 4 5 - - 0.0
23/01:00pm 24.3 22.9 9.5 39 8.1 N 7 13 4 7 - - 0.0
23/12:30pm 23.1 22.2 9.1 41 7.5 N 4 9 2 5 - - 0.0
23/12:00pm 22.8 20.9 9.2 42 7.3 NNW 9 13 5 7 - - 0.0
23/11:30am 22.4 20.5 9.2 43 7.1 W 9 15 5 8 - - 0.0
23/11:00am 21.9 19.6 9.1 44 6.8 WNW 11 17 6 9 - - 0.0
23/10:30am 20.7 18.6 9.6 49 5.9 NW 11 17 6 9 - - 0.0
23/10:00am 19.7 17.6 8.4 48 5.9 NNW 9 15 5 8 - - 0.0
23/09:30am 18.8 17.0 9.6 55 4.9 NW 9 13 5 7 - - 0.0
23/09:00am 17.5 15.6 9.2 58 4.3 NW 9 13 5 7 - - 0.0
23/08:30am 16.7 14.9 9.4 62 3.8 NNW 9 13 5 7 - - 0.0
23/08:00am 15.1 13.5 10.1 72 2.6 NNW 9 13 5 7 - - 0.0
23/07:30am 12.7 11.3 9.5 81 1.6 NNW 7 13 4 7 - - 0.0
23/07:00am 10.9 9.5 9.5 91 0.7 N 7 9 4 5 - - 0.0
23/06:30am 8.7 7.5 7.9 95 0.4 N 4 6 2 3 - - 0.0
23/06:00am 9.1 8.7 8.2 94 0.4 CALM 0 0 0 0 - - 0.0
23/05:30am 8.5 7.6 7.6 94 0.4 NNW 2 6 1 3 - - 0.0
23/05:00am 8.7 8.1 7.6 93 0.5 CALM 0 0 0 0 - - 0.0
23/04:30am 9.5 9.2 8.7 95 0.4 CALM 0 0 0 0 - - 0.0
23/04:00am 9.5 9.1 8.4 93 0.5 CALM 0 0 0 0 - - 0.0
23/03:30am 9.6 9.3 8.5 93 0.5 CALM 0 0 0 0 - - 0.0
23/03:00am 9.6 9.2 8.4 92 0.6 CALM 0 0 0 0 - - 0.0
23/02:30am 9.5 9.1 8.1 91 0.7 CALM 0 0 0 0 - - 0.0
23/02:00am 10.7 10.6 9.6 93 0.6 CALM 0 0 0 0 - - 0.0
23/01:30am 10.4 10.2 9.2 92 0.6 CALM 0 0 0 0 - - 0.0
23/01:00am 10.7 10.5 9.1 90 0.8 CALM 0 0 0 0 - - 0.0
23/12:30am 11.0 9.7 9.1 88 0.9 N 6 7 3 4 - - 0.0
23/12:00am 11.8 11.8 9.9 88 1.0 CALM 0 0 0 0 - - 0.0
 
Date/Time
EST
Tmp

°C
App
Tmp
°C
Dew
Point
°C
Rel
Hum
%
Delta-T

°C
Wind Press
QNH
hPa
Press
MSL
hPa
Rain
since
9 am
mm
Dir
 
Spd
km/h
Gust
km/h
Spd
kts
Gust
kts
22/11:30pm 12.2 12.3 10.1 87 1.1 CALM 0 0 0 0 - - 0.0
22/11:00pm 12.7 13.0 10.9 89 0.9 CALM 0 0 0 0 - - 0.0
22/10:30pm 12.8 12.6 10.5 86 1.2 N 2 6 1 3 - - 0.0
22/10:00pm 12.9 13.3 11.1 89 0.9 CALM 0 0 0 0 - - 0.0
22/09:30pm 13.5 14.0 11.6 88 1.0 CALM 0 0 0 0 - - 0.0
22/09:00pm 14.0 14.6 11.9 87 1.1 CALM 0 0 0 0 - - 0.0
22/08:30pm 14.0 14.3 10.8 81 1.7 CALM 0 0 0 0 - - 0.0
22/08:00pm 14.6 15.0 11.4 81 1.7 CALM 0 0 0 0 - - 0.0
22/07:30pm 15.1 15.5 11.1 77 2.1 CALM 0 0 0 0 - - 0.0
22/07:00pm 15.8 16.4 12.0 78 2.1 CALM 0 0 0 0 - - 0.0
22/06:30pm 16.0 16.3 11.0 72 2.7 CALM 0 0 0 0 - - 0.0
22/06:00pm 17.2 17.4 10.6 65 3.5 CALM 0 0 0 0 - - 0.0
22/05:30pm 18.7 18.8 10.0 57 4.6 CALM 0 0 0 0 - - 0.0
22/05:23pm 18.9 19.0 10.2 57 4.7 CALM 0 0 0 0 - - 0.0
22/05:11pm 20.3 20.4 10.1 52 5.5 CALM 0 0 0 0 - - 0.0
22/05:00pm 21.8 21.6 10.3 48 6.3 N 2 7 1 4 - - 0.0
22/04:30pm 23.0 21.5 8.3 39 7.8 N 6 7 3 4 - - 0.0
22/04:00pm 23.5 21.7 8.0 37 8.2 N 7 11 4 6 - - 0.0
22/03:30pm 23.8 21.8 8.6 38 8.1 NNW 9 11 5 6 - - 0.0

Latest Capital City Observations: Canberra | Sydney | Melbourne | Brisbane | Adelaide | Perth | Hobart | Darwin

Other Formats:

Comma delimited format used in spreadsheet applications
http://www.bom.gov.au/fwo/IDN60901/IDN60901.94766.axf

JavaScript Object Notation format (JSON) in row-major order
http://www.bom.gov.au/fwo/IDN60901/IDN60901.94766.json